Nearby METAR* Reports

*"METAR [Météorologique Aviation Régulière] is the international standard code format for hourly surface weather observations which is analogous to the SA coding currently used in the US. The acronym roughly translates from French as Aviation Routine Weather Report." (Source: https://www.ncdc.noaa.gov/wdcmet/data-access-search-viewer-tools/metar-terminal-aerodrome-forecast-taf-faq)

 

KTEB - Teterboro, New Jersey, USA
Distance from station: ENE 2mi, 3km
Updated: 02/01/2023 2:51am
Overcast
Overcast
 Wind from N
Wind: N 7 mph , 11 km/h
Temperature: 28°F , -2°C
Wind Chill: 21°F , -6°C
Dew Point: 12°F , -11°C
Humidity: 51%
Barometer: 30.22 inHg , 1023.4 hPa
Clouds: Overcast
Visibility: 10 miles , 16 km
Cloud details: Mostly cloudy 3700 ft
Overcast 5500 ft
2023/02/01 07:51 KTEB 010751Z 01006KT 10SM BKN037 OVC055 M02/M11 A3022 RMK AO2 SLP233 T10221111
KNYC - Nyc/Central Park, New York, USA
Distance from station: SE 8mi, 13km
Updated: 02/01/2023 2:51am
Overcast
Overcast
 Wind from varies
Wind: varies 5 mph , 7 km/h
Temperature: 30°F , -1°C
Wind Chill: 25°F , -4°C
Dew Point: 12°F , -11°C
Humidity: 47%
Barometer: 30.23 inHg , 1023.7 hPa
Clouds: Overcast
Visibility: 10 miles , 16 km
Cloud details: Partly cloudy 3700 ft
Overcast 5500 ft
2023/02/01 07:51 KNYC 010751Z AUTO VRB04KT 10SM SCT037 OVC055 M01/M11 A3023 RMK AO2 SLP229 T10111106
KCDW - Caldwell, New Jersey, USA
Distance from station: W 11mi, 17km
Updated: 02/01/2023 2:53am
Overcast
Overcast
 Wind from varies
Wind: varies 5 mph , 7 km/h
Temperature: 28°F , -2°C
Wind Chill: 22°F , -6°C
Dew Point: 9°F , -13°C
Humidity: 43%
Barometer: 30.23 inHg , 1023.7 hPa
Clouds: Overcast
Visibility: 10 miles , 16 km
Cloud details: Partly cloudy 3600 ft
Overcast 5000 ft
2023/02/01 07:53 KCDW 010753Z AUTO VRB04KT 10SM SCT036 OVC050 M02/M13 A3023 RMK AO2 SLP243 T10221128
 
KLGA - Nyc/La Guardia, New York, USA
Distance from station: ESE 12mi, 19km
Updated: 02/01/2023 2:51am
Overcast
Overcast
 Wind from NNE
Wind: NNE 9 mph , 15 km/h
Temperature: 30°F , -1°C
Wind Chill: 22°F , -6°C
Dew Point: 12°F , -11°C
Humidity: 47%
Barometer: 30.22 inHg , 1023.4 hPa
Clouds: Overcast
Visibility: 10 miles , 16 km
Cloud details: Overcast 3300 ft
2023/02/01 07:51 KLGA 010751Z 03008KT 10SM OVC033 M01/M11 A3022 RMK AO2 SLP231 T10111106 $
KEWR - Newark, New Jersey, USA
Distance from station: SSW 13mi, 20km
Updated: 02/01/2023 3:17am
Overcast
Overcast
 Wind from N
Wind: N 12 mph , 19 km/h
Temperature: 30°F , -1°C
Wind Chill: 20°F , -7°C
Dew Point: 14°F , -10°C
Humidity: 51%
Barometer: 30.22 inHg , 1023.4 hPa
Clouds: Overcast
Visibility: 10 miles , 16 km
Cloud details: Mostly cloudy 2900 ft
Mostly cloudy 3600 ft
Overcast 4800 ft
2023/02/01 08:17 KEWR 010817Z 36010KT 10SM BKN029 BKN036 OVC048 M01/M10 A3022 RMK AO2 T10111100
KMMU - Morristown Muni, New Jersey, USA
Distance from station: WSW 18mi, 29km
Updated: 02/01/2023 3:15am
Overcast
Overcast
 Wind from N
Wind: N 7 mph , 11 km/h
Temperature: 28°F , -2°C
Wind Chill: 21°F , -6°C
Dew Point: 14°F , -10°C
Humidity: 55%
Barometer: 30.22 inHg , 1023.4 hPa
Clouds: Overcast
Visibility: 10 miles , 16 km
Cloud details: Mostly cloudy 4300 ft
Overcast 4900 ft
2023/02/01 08:15 KMMU 010815Z AUTO 35006KT 10SM BKN043 OVC049 M02/M10 A3022 RMK AO2
 
KLDJ - Linden, New Jersey, USA
Distance from station: SSW 19mi, 30km
Updated: 01/23/2023 11:55am
NOT Current
Drizzle, Overcast
Drizzle, Overcast
 Wind from WNW
Wind: WNW 10 mph , 17 km/h
Temperature: 39°F , 4°C
Wind Chill: 32°F , 0°C
Dew Point: 36°F , 2°C
Humidity: 87%
Barometer: 29.57 inHg , 1001.4 hPa
Summary: Drizzle
Clouds: Overcast
Visibility: 5 miles , 8 km
Cloud details: Partly cloudy 900 ft
Mostly cloudy 1400 ft
Overcast 1900 ft
2023/01/23 16:55 KLDJ 231655Z AUTO 30009KT 5SM DZ SCT009 BKN014 OVC019 04/02 A2957 RMK AO2 T00350020
KJFK - Nyc/Jfk Arpt, New York, USA
Distance from station: SE 23mi, 36km
Updated: 02/01/2023 2:51am
Overcast
Overcast
 Wind from NNE
Wind: NNE 12 mph , 19 km/h
Temperature: 30°F , -1°C
Wind Chill: 20°F , -7°C
Dew Point: 18°F , -8°C
Humidity: 59%
Barometer: 30.22 inHg , 1023.4 hPa
Clouds: Overcast
Visibility: 10 miles , 16 km
Cloud details: Overcast 3500 ft
2023/02/01 07:51 KJFK 010751Z 03010KT 10SM OVC035 M01/M08 A3022 RMK AO2 SLP234 T10111083
KHPN - White Plains, New York, USA
Distance from station: NE 25mi, 40km
Updated: 02/01/2023 2:56am
Light snow, Overcast
Light snow, Overcast
 Wind from NE
Wind: NE 6 mph , 9 km/h
Temperature: 27°F , -3°C
Wind Chill: 20°F , -7°C
Dew Point: 12°F , -11°C
Humidity: 54%
Barometer: 30.20 inHg , 1022.7 hPa
Summary: Light Snow
Clouds: Overcast
Visibility: 10 miles , 16 km
Cloud details: Overcast 3800 ft
2023/02/01 07:56 KHPN 010756Z 04005KT 10SM -SN OVC038 M03/M11 A3020 RMK AO2 SNB52 SLP234 P0000 T10281111
 
KSMQ - Somerville, New Jersey, USA
Distance from station: WSW 35mi, 56km
Updated: 02/01/2023 2:53am
Overcast
Overcast
 Wind from varies
Wind: varies 5 mph , 7 km/h
Temperature: 30°F , -1°C
Wind Chill: 25°F , -4°C
Dew Point: 16°F , -9°C
Humidity: 55%
Barometer: 30.20 inHg , 1022.7 hPa
Clouds: Overcast
Visibility: 10 miles , 16 km
Cloud details: Overcast 5000 ft
2023/02/01 07:53 KSMQ 010753Z AUTO VRB04KT 10SM OVC050 M01/M09 A3020 RMK AO2 SLP228 T10111094
K12N - Andover, New Jersey, USA
Distance from station: WNW 36mi, 57km
Updated: 02/01/2023 2:54am

 Wind from varies
Wind: varies 5 mph , 7 km/h
Temperature: 27°F , -3°C
Wind Chill: 21°F , -6°C
Dew Point: 12°F , -11°C
Humidity: 54%
Barometer: 30.20 inHg , 1022.7 hPa
2023/02/01 07:54 K12N 010754Z AUTO VRB04KT M03/M11 A3020 RMK AO1 SLP239 T10281111
KFRG - Farmingdale, New York, USA
Distance from station: ESE 36mi, 58km
Updated: 02/01/2023 2:53am
Overcast
Overcast
 Wind from NE
Wind: NE 9 mph , 15 km/h
Temperature: 30°F , -1°C
Wind Chill: 22°F , -6°C
Dew Point: 16°F , -9°C
Humidity: 55%
Barometer: 30.21 inHg , 1023 hPa
Clouds: Overcast
Visibility: 10 miles , 16 km
Cloud details: Overcast 3300 ft
2023/02/01 07:53 KFRG 010753Z AUTO 04008KT 10SM OVC033 M01/M09 A3021 RMK AO2 SLP230 T10061089
 
KFWN - Sussex, New Jersey, USA
Distance from station: NW 37mi, 60km
Updated: 02/01/2023 2:53am
Overcast
Overcast
 Wind from NNE
Wind: NNE 8 mph , 13 km/h
Temperature: 25°F , -4°C
Wind Chill: 16°F , -9°C
Dew Point: 10°F , -12°C
Humidity: 54%
Barometer: 30.21 inHg , 1023 hPa
Clouds: Overcast
Visibility: 10 miles , 16 km
Cloud details: Overcast 5000 ft
2023/02/01 07:53 KFWN 010753Z AUTO 02007KT 10SM OVC050 M04/M12 A3021 RMK AO2 SLP234 T10391117
KSWF - Newburgh/Stewart, New York, USA
Distance from station: 0 44mi, 72km
Updated: 02/01/2023 2:45am
Overcast
Overcast
 Wind from NNE
Wind: NNE 9 mph , 15 km/h
Temperature: 23°F , -5°C
Wind Chill: 13°F , -11°C
Dew Point: 12°F , -11°C
Humidity: 63%
Barometer: 30.22 inHg , 1023.4 hPa
Clouds: Overcast
Visibility: 10 miles , 16 km
Cloud details: Overcast 6000 ft
2023/02/01 07:45 KSWF 010745Z 03008KT 10SM OVC060 M05/M11 A3022
KMGJ - Montgomery, New York, USA
Distance from station: NNW 47mi, 75km
Updated: 02/01/2023 2:54am
Overcast
Overcast
 Wind from N
Wind: N 9 mph , 15 km/h
Temperature: 21°F , -6°C
Wind Chill: 11°F , -12°C
Dew Point: 10°F , -12°C
Humidity: 63%
Barometer: 30.23 inHg , 1023.7 hPa
Clouds: Overcast
Visibility: 10 miles , 16 km
Cloud details: Partly cloudy 5500 ft
Overcast 11000 ft
2023/02/01 07:54 KMGJ 010754Z AUTO 01008KT 10SM SCT055 OVC110 M06/M12 A3023 RMK AO2 SLP240 T10561122
 
KDXR - Danbury, Connecticut, USA
Distance from station: NE 47mi, 76km
Updated: 02/01/2023 2:53am
Overcast
Overcast
 Wind from NE
Wind: NE 5 mph , 7 km/h
Temperature: 27°F , -3°C
Wind Chill: 21°F , -6°C
Dew Point: 10°F , -12°C
Humidity: 50%
Barometer: 30.22 inHg , 1023.4 hPa
Clouds: Overcast
Visibility: 10 miles , 16 km
Cloud details: Overcast 5000 ft
2023/02/01 07:53 KDXR 010753Z AUTO 04004KT 10SM OVC050 M03/M12 A3022 RMK AO2 SLP237 T10281117
KBLM - Belmar/Farmdale, New Jersey, USA
Distance from station: S 48mi, 77km
Updated: 02/01/2023 3:04am
Overcast
Overcast
 Wind from N
Wind: N 6 mph , 9 km/h
Barometer: 30.21 inHg , 1023 hPa
Clouds: Overcast
Visibility: 10 miles , 16 km
Cloud details: Mostly cloudy 2400 ft
Overcast 3000 ft
2023/02/01 08:04 KBLM 010804Z AUTO 01005KT 10SM BKN024 OVC030 A3021 RMK AO2 FZRANO $